sensor_id;sensor_type;location;lat;lon;timestamp;temperature;humidity
67549;DHT22;54382;53.524;49.326;2022-07-29T00:00:49;26.40;48.70
67549;DHT22;54382;53.524;49.326;2022-07-29T00:03:16;26.30;48.60
67549;DHT22;54382;53.524;49.326;2022-07-29T00:05:42;26.30;48.60
67549;DHT22;54382;53.524;49.326;2022-07-29T00:08:09;26.30;48.80
67549;DHT22;54382;53.524;49.326;2022-07-29T00:10:36;26.20;48.70
67549;DHT22;54382;53.524;49.326;2022-07-29T00:13:02;26.20;48.60
67549;DHT22;54382;53.524;49.326;2022-07-29T00:15:29;26.20;48.70
67549;DHT22;54382;53.524;49.326;2022-07-29T00:17:56;26.20;48.90
67549;DHT22;54382;53.524;49.326;2022-07-29T00:20:22;26.10;48.80
67549;DHT22;54382;53.524;49.326;2022-07-29T00:22:49;26.00;48.70
67549;DHT22;54382;53.524;49.326;2022-07-29T00:25:16;26.00;49.00
67549;DHT22;54382;53.524;49.326;2022-07-29T00:27:42;26.00;49.10
67549;DHT22;54382;53.524;49.326;2022-07-29T00:30:09;26.00;49.30
67549;DHT22;54382;53.524;49.326;2022-07-29T00:32:36;26.00;49.40
67549;DHT22;54382;53.524;49.326;2022-07-29T00:35:04;25.90;49.40
67549;DHT22;54382;53.524;49.326;2022-07-29T00:37:50;25.90;49.50
67549;DHT22;54382;53.524;49.326;2022-07-29T00:40:16;25.90;49.50
67549;DHT22;54382;53.524;49.326;2022-07-29T00:42:44;25.80;49.60
67549;DHT22;54382;53.524;49.326;2022-07-29T00:45:15;25.80;49.60
67549;DHT22;54382;53.524;49.326;2022-07-29T00:47:42;25.80;49.60
67549;DHT22;54382;53.524;49.326;2022-07-29T00:50:10;25.80;49.70
67549;DHT22;54382;53.524;49.326;2022-07-29T00:52:38;25.70;49.60
67549;DHT22;54382;53.524;49.326;2022-07-29T00:55:08;25.70;49.60
67549;DHT22;54382;53.524;49.326;2022-07-29T00:57:40;25.70;49.80
67549;DHT22;54382;53.524;49.326;2022-07-29T01:00:10;25.70;49.80
67549;DHT22;54382;53.524;49.326;2022-07-29T01:02:43;25.70;50.00
67549;DHT22;54382;53.524;49.326;2022-07-29T01:05:11;25.70;49.80
67549;DHT22;54382;53.524;49.326;2022-07-29T01:07:39;25.60;49.80
67549;DHT22;54382;53.524;49.326;2022-07-29T01:10:07;25.60;50.00
67549;DHT22;54382;53.524;49.326;2022-07-29T01:12:37;25.60;49.90
67549;DHT22;54382;53.524;49.326;2022-07-29T01:15:06;25.60;49.80
67549;DHT22;54382;53.524;49.326;2022-07-29T01:18:00;25.60;49.80
67549;DHT22;54382;53.524;49.326;2022-07-29T01:32:15;25.70;49.20
67549;DHT22;54382;53.524;49.326;2022-07-29T01:37:48;25.70;49.40
67549;DHT22;54382;53.524;49.326;2022-07-29T01:42:54;25.90;48.90
67549;DHT22;54382;53.524;49.326;2022-07-29T01:48:47;25.90;48.70
67549;DHT22;54382;53.524;49.326;2022-07-29T01:51:25;26.00;48.70
67549;DHT22;54382;53.524;49.326;2022-07-29T01:56:43;26.00;48.40
67549;DHT22;54382;53.524;49.326;2022-07-29T01:59:11;26.00;48.40
67549;DHT22;54382;53.524;49.326;2022-07-29T02:01:40;26.10;48.60
67549;DHT22;54382;53.524;49.326;2022-07-29T02:04:11;26.20;48.20
67549;DHT22;54382;53.524;49.326;2022-07-29T02:06:41;26.30;48.30
67549;DHT22;54382;53.524;49.326;2022-07-29T02:09:11;26.50;48.20
67549;DHT22;54382;53.524;49.326;2022-07-29T02:11:39;26.70;47.00
67549;DHT22;54382;53.524;49.326;2022-07-29T02:14:07;27.00;46.20
67549;DHT22;54382;53.524;49.326;2022-07-29T02:16:37;27.30;45.50
67549;DHT22;54382;53.524;49.326;2022-07-29T02:19:06;27.50;44.90
67549;DHT22;54382;53.524;49.326;2022-07-29T02:21:35;27.60;44.40
67549;DHT22;54382;53.524;49.326;2022-07-29T02:24:02;27.80;44.40
67549;DHT22;54382;53.524;49.326;2022-07-29T02:26:32;28.00;43.80
67549;DHT22;54382;53.524;49.326;2022-07-29T02:29:00;28.20;43.60
67549;DHT22;54382;53.524;49.326;2022-07-29T02:31:32;28.50;43.10
67549;DHT22;54382;53.524;49.326;2022-07-29T02:34:01;28.70;42.60
67549;DHT22;54382;53.524;49.326;2022-07-29T02:36:30;28.90;42.20
67549;DHT22;54382;53.524;49.326;2022-07-29T02:38:58;29.00;41.80
67549;DHT22;54382;53.524;49.326;2022-07-29T02:44:10;29.30;41.40
67549;DHT22;54382;53.524;49.326;2022-07-29T02:52:16;29.50;40.60
67549;DHT22;54382;53.524;49.326;2022-07-29T02:54:56;29.50;40.70
67549;DHT22;54382;53.524;49.326;2022-07-29T02:57:41;29.60;40.40
67549;DHT22;54382;53.524;49.326;2022-07-29T03:00:10;29.60;39.80
67549;DHT22;54382;53.524;49.326;2022-07-29T03:02:43;29.70;39.80
67549;DHT22;54382;53.524;49.326;2022-07-29T03:05:15;29.80;40.00
67549;DHT22;54382;53.524;49.326;2022-07-29T03:07:46;29.80;39.70
67549;DHT22;54382;53.524;49.326;2022-07-29T03:10:16;29.80;39.50
67549;DHT22;54382;53.524;49.326;2022-07-29T03:12:43;29.80;39.50
67549;DHT22;54382;53.524;49.326;2022-07-29T03:15:10;29.80;39.90
67549;DHT22;54382;53.524;49.326;2022-07-29T03:17:37;29.80;39.70
67549;DHT22;54382;53.524;49.326;2022-07-29T03:20:07;29.80;40.00
67549;DHT22;54382;53.524;49.326;2022-07-29T03:22:40;29.80;39.70
67549;DHT22;54382;53.524;49.326;2022-07-29T03:25:18;29.80;39.60
67549;DHT22;54382;53.524;49.326;2022-07-29T03:27:46;29.80;39.10
67549;DHT22;54382;53.524;49.326;2022-07-29T03:30:14;29.90;39.10
67549;DHT22;54382;53.524;49.326;2022-07-29T03:32:41;29.90;38.90
67549;DHT22;54382;53.524;49.326;2022-07-29T03:35:08;29.90;39.40
67549;DHT22;54382;53.524;49.326;2022-07-29T03:37:35;29.90;40.00
67549;DHT22;54382;53.524;49.326;2022-07-29T03:40:05;29.90;39.30
67549;DHT22;54382;53.524;49.326;2022-07-29T03:42:36;29.90;38.90
67549;DHT22;54382;53.524;49.326;2022-07-29T03:45:10;30.10;39.00
67549;DHT22;54382;53.524;49.326;2022-07-29T03:47:47;30.40;38.70
67549;DHT22;54382;53.524;49.326;2022-07-29T03:50:17;30.60;38.00
67549;DHT22;54382;53.524;49.326;2022-07-29T03:52:46;30.90;37.50
67549;DHT22;54382;53.524;49.326;2022-07-29T03:55:14;31.20;37.50
67549;DHT22;54382;53.524;49.326;2022-07-29T03:57:42;31.40;37.40
67549;DHT22;54382;53.524;49.326;2022-07-29T04:00:11;31.50;37.40
67549;DHT22;54382;53.524;49.326;2022-07-29T04:02:38;31.80;36.90
67549;DHT22;54382;53.524;49.326;2022-07-29T04:05:05;32.00;36.50
67549;DHT22;54382;53.524;49.326;2022-07-29T04:07:38;32.10;36.10
67549;DHT22;54382;53.524;49.326;2022-07-29T04:10:05;32.30;35.90
67549;DHT22;54382;53.524;49.326;2022-07-29T04:12:32;32.40;34.90
67549;DHT22;54382;53.524;49.326;2022-07-29T04:14:58;32.60;34.70
67549;DHT22;54382;53.524;49.326;2022-07-29T04:17:25;32.80;34.30
67549;DHT22;54382;53.524;49.326;2022-07-29T04:19:51;32.90;34.20
67549;DHT22;54382;53.524;49.326;2022-07-29T04:22:18;33.00;34.20
67549;DHT22;54382;53.524;49.326;2022-07-29T04:24:46;33.10;34.20
67549;DHT22;54382;53.524;49.326;2022-07-29T04:27:13;33.30;34.00
67549;DHT22;54382;53.524;49.326;2022-07-29T04:29:39;33.60;33.50
67549;DHT22;54382;53.524;49.326;2022-07-29T04:32:06;34.00;33.70
67549;DHT22;54382;53.524;49.326;2022-07-29T04:34:33;34.40;33.00
67549;DHT22;54382;53.524;49.326;2022-07-29T04:36:59;34.70;32.40
67549;DHT22;54382;53.524;49.326;2022-07-29T04:39:26;35.00;31.60
67549;DHT22;54382;53.524;49.326;2022-07-29T04:41:53;35.40;32.00
67549;DHT22;54382;53.524;49.326;2022-07-29T04:44:19;35.70;31.40
67549;DHT22;54382;53.524;49.326;2022-07-29T04:46:46;36.00;30.90
67549;DHT22;54382;53.524;49.326;2022-07-29T04:49:13;36.30;30.10
67549;DHT22;54382;53.524;49.326;2022-07-29T04:51:39;36.60;29.70
67549;DHT22;54382;53.524;49.326;2022-07-29T04:54:06;36.90;29.20
67549;DHT22;54382;53.524;49.326;2022-07-29T04:56:33;37.10;29.30
67549;DHT22;54382;53.524;49.326;2022-07-29T04:58:59;37.20;28.90
67549;DHT22;54382;53.524;49.326;2022-07-29T05:01:26;37.20;28.40
67549;DHT22;54382;53.524;49.326;2022-07-29T05:03:53;37.10;28.60
67549;DHT22;54382;53.524;49.326;2022-07-29T05:06:19;37.00;28.50
67549;DHT22;54382;53.524;49.326;2022-07-29T05:08:46;36.90;28.50
67549;DHT22;54382;53.524;49.326;2022-07-29T05:11:13;36.80;29.10
67549;DHT22;54382;53.524;49.326;2022-07-29T05:13:39;36.70;29.00
67549;DHT22;54382;53.524;49.326;2022-07-29T05:16:08;36.60;29.20
67549;DHT22;54382;53.524;49.326;2022-07-29T05:18:34;36.50;29.30
67549;DHT22;54382;53.524;49.326;2022-07-29T05:21:01;36.50;29.10
67549;DHT22;54382;53.524;49.326;2022-07-29T05:23:28;36.50;29.00
67549;DHT22;54382;53.524;49.326;2022-07-29T05:25:55;36.70;29.80
67549;DHT22;54382;53.524;49.326;2022-07-29T05:28:22;36.90;29.10
67549;DHT22;54382;53.524;49.326;2022-07-29T05:30:48;37.00;29.30
67549;DHT22;54382;53.524;49.326;2022-07-29T05:33:15;37.20;29.10
67549;DHT22;54382;53.524;49.326;2022-07-29T05:35:41;37.40;28.40
67549;DHT22;54382;53.524;49.326;2022-07-29T05:38:08;37.80;28.20
67549;DHT22;54382;53.524;49.326;2022-07-29T05:40:34;38.10;28.10
67549;DHT22;54382;53.524;49.326;2022-07-29T05:43:01;38.50;27.70
67549;DHT22;54382;53.524;49.326;2022-07-29T05:45:28;38.60;26.90
67549;DHT22;54382;53.524;49.326;2022-07-29T05:47:54;38.80;27.20
67549;DHT22;54382;53.524;49.326;2022-07-29T05:50:21;38.90;26.30
67549;DHT22;54382;53.524;49.326;2022-07-29T05:52:47;39.00;26.10
67549;DHT22;54382;53.524;49.326;2022-07-29T05:55:14;39.10;26.20
67549;DHT22;54382;53.524;49.326;2022-07-29T05:57:41;39.20;26.10
67549;DHT22;54382;53.524;49.326;2022-07-29T06:00:09;39.30;25.90
67549;DHT22;54382;53.524;49.326;2022-07-29T06:02:36;39.30;26.00
67549;DHT22;54382;53.524;49.326;2022-07-29T06:05:03;39.40;26.20
67549;DHT22;54382;53.524;49.326;2022-07-29T06:07:30;39.40;26.20
67549;DHT22;54382;53.524;49.326;2022-07-29T06:09:58;39.50;26.40
67549;DHT22;54382;53.524;49.326;2022-07-29T06:12:24;39.50;25.30
67549;DHT22;54382;53.524;49.326;2022-07-29T06:14:52;39.50;25.20
67549;DHT22;54382;53.524;49.326;2022-07-29T06:17:18;39.50;25.70
67549;DHT22;54382;53.524;49.326;2022-07-29T06:19:45;39.60;25.50
67549;DHT22;54382;53.524;49.326;2022-07-29T06:22:12;39.60;25.60
67549;DHT22;54382;53.524;49.326;2022-07-29T06:24:42;39.70;25.70
67549;DHT22;54382;53.524;49.326;2022-07-29T06:27:12;39.70;25.20
67549;DHT22;54382;53.524;49.326;2022-07-29T06:29:39;39.80;25.60
67549;DHT22;54382;53.524;49.326;2022-07-29T06:32:06;39.80;25.10
67549;DHT22;54382;53.524;49.326;2022-07-29T06:34:35;39.80;24.90
67549;DHT22;54382;53.524;49.326;2022-07-29T06:37:09;39.70;25.50
67549;DHT22;54382;53.524;49.326;2022-07-29T06:39:36;39.70;25.50
67549;DHT22;54382;53.524;49.326;2022-07-29T06:42:06;39.70;25.00
67549;DHT22;54382;53.524;49.326;2022-07-29T06:44:33;39.70;25.30
67549;DHT22;54382;53.524;49.326;2022-07-29T06:47:00;39.70;25.60
67549;DHT22;54382;53.524;49.326;2022-07-29T06:49:27;39.70;25.40
67549;DHT22;54382;53.524;49.326;2022-07-29T06:51:55;39.70;25.70
67549;DHT22;54382;53.524;49.326;2022-07-29T06:54:21;39.70;25.80
67549;DHT22;54382;53.524;49.326;2022-07-29T06:56:48;39.70;25.50
67549;DHT22;54382;53.524;49.326;2022-07-29T06:59:15;39.70;25.50
67549;DHT22;54382;53.524;49.326;2022-07-29T07:01:43;39.80;25.70
67549;DHT22;54382;53.524;49.326;2022-07-29T07:04:10;39.80;25.60
67549;DHT22;54382;53.524;49.326;2022-07-29T07:06:38;39.80;25.90
67549;DHT22;54382;53.524;49.326;2022-07-29T07:09:05;39.80;25.40
67549;DHT22;54382;53.524;49.326;2022-07-29T07:11:31;39.80;25.20
67549;DHT22;54382;53.524;49.326;2022-07-29T07:13:58;39.70;25.20
67549;DHT22;54382;53.524;49.326;2022-07-29T07:16:25;39.70;25.10
67549;DHT22;54382;53.524;49.326;2022-07-29T07:18:52;39.70;25.20
67549;DHT22;54382;53.524;49.326;2022-07-29T07:21:18;39.80;25.40
67549;DHT22;54382;53.524;49.326;2022-07-29T07:23:46;39.80;25.40
67549;DHT22;54382;53.524;49.326;2022-07-29T07:26:12;39.80;25.50
67549;DHT22;54382;53.524;49.326;2022-07-29T07:28:39;39.70;25.70
67549;DHT22;54382;53.524;49.326;2022-07-29T07:31:06;39.60;25.20
67549;DHT22;54382;53.524;49.326;2022-07-29T07:33:32;39.60;25.10
67549;DHT22;54382;53.524;49.326;2022-07-29T07:35:59;39.60;25.20
67549;DHT22;54382;53.524;49.326;2022-07-29T07:38:26;39.60;25.00
67549;DHT22;54382;53.524;49.326;2022-07-29T07:40:53;39.60;25.10
67549;DHT22;54382;53.524;49.326;2022-07-29T07:43:19;39.50;25.20
67549;DHT22;54382;53.524;49.326;2022-07-29T07:45:47;39.50;25.00
67549;DHT22;54382;53.524;49.326;2022-07-29T07:48:14;39.40;24.90
67549;DHT22;54382;53.524;49.326;2022-07-29T07:50:41;39.40;24.90
67549;DHT22;54382;53.524;49.326;2022-07-29T07:53:07;39.40;25.10
67549;DHT22;54382;53.524;49.326;2022-07-29T07:55:40;39.40;25.60
67549;DHT22;54382;53.524;49.326;2022-07-29T07:58:07;39.40;25.30
67549;DHT22;54382;53.524;49.326;2022-07-29T08:00:34;39.50;25.30
67549;DHT22;54382;53.524;49.326;2022-07-29T08:03:02;39.40;25.40
67549;DHT22;54382;53.524;49.326;2022-07-29T08:05:28;39.40;25.30
67549;DHT22;54382;53.524;49.326;2022-07-29T08:07:55;39.40;25.20
67549;DHT22;54382;53.524;49.326;2022-07-29T08:10:22;39.50;24.80
67549;DHT22;54382;53.524;49.326;2022-07-29T08:13:09;39.50;24.60
67549;DHT22;54382;53.524;49.326;2022-07-29T08:15:39;39.50;24.00
67549;DHT22;54382;53.524;49.326;2022-07-29T08:18:07;39.40;24.40
67549;DHT22;54382;53.524;49.326;2022-07-29T08:20:34;39.30;24.60
67549;DHT22;54382;53.524;49.326;2022-07-29T08:23:02;39.30;24.80
67549;DHT22;54382;53.524;49.326;2022-07-29T08:25:30;39.30;24.90
67549;DHT22;54382;53.524;49.326;2022-07-29T08:27:57;39.30;25.40
67549;DHT22;54382;53.524;49.326;2022-07-29T08:30:24;39.40;25.30
67549;DHT22;54382;53.524;49.326;2022-07-29T08:32:50;39.50;25.00
67549;DHT22;54382;53.524;49.326;2022-07-29T08:35:20;39.70;24.90
67549;DHT22;54382;53.524;49.326;2022-07-29T08:37:47;39.80;24.50
67549;DHT22;54382;53.524;49.326;2022-07-29T08:40:14;39.90;24.60
67549;DHT22;54382;53.524;49.326;2022-07-29T08:42:41;40.00;25.50
67549;DHT22;54382;53.524;49.326;2022-07-29T08:45:08;40.10;25.00
67549;DHT22;54382;53.524;49.326;2022-07-29T08:47:35;40.00;24.80
67549;DHT22;54382;53.524;49.326;2022-07-29T08:50:09;40.10;25.60
67549;DHT22;54382;53.524;49.326;2022-07-29T08:52:38;40.10;25.30
67549;DHT22;54382;53.524;49.326;2022-07-29T08:55:07;40.10;24.30
67549;DHT22;54382;53.524;49.326;2022-07-29T08:57:35;40.20;24.10
67549;DHT22;54382;53.524;49.326;2022-07-29T09:00:05;40.10;24.40
67549;DHT22;54382;53.524;49.326;2022-07-29T09:02:40;40.10;24.70
67549;DHT22;54382;53.524;49.326;2022-07-29T09:05:08;40.10;24.50
67549;DHT22;54382;53.524;49.326;2022-07-29T09:07:35;40.00;24.30
67549;DHT22;54382;53.524;49.326;2022-07-29T09:10:04;39.80;24.40
67549;DHT22;54382;53.524;49.326;2022-07-29T09:12:31;39.80;24.40
67549;DHT22;54382;53.524;49.326;2022-07-29T09:14:58;39.70;24.30
67549;DHT22;54382;53.524;49.326;2022-07-29T09:17:48;39.60;24.90
67549;DHT22;54382;53.524;49.326;2022-07-29T09:20:22;39.60;24.60
67549;DHT22;54382;53.524;49.326;2022-07-29T09:22:49;39.80;24.30
67549;DHT22;54382;53.524;49.326;2022-07-29T09:25:39;39.90;24.70
67549;DHT22;54382;53.524;49.326;2022-07-29T09:28:24;39.80;24.30
67549;DHT22;54382;53.524;49.326;2022-07-29T09:30:56;39.90;24.40
67549;DHT22;54382;53.524;49.326;2022-07-29T09:33:32;39.90;24.50
67549;DHT22;54382;53.524;49.326;2022-07-29T09:36:08;39.80;24.90
67549;DHT22;54382;53.524;49.326;2022-07-29T09:38:36;39.80;24.90
67549;DHT22;54382;53.524;49.326;2022-07-29T09:41:04;39.80;24.50
67549;DHT22;54382;53.524;49.326;2022-07-29T09:43:31;40.00;24.40
67549;DHT22;54382;53.524;49.326;2022-07-29T09:46:13;40.00;24.50
67549;DHT22;54382;53.524;49.326;2022-07-29T09:48:40;40.00;24.60
67549;DHT22;54382;53.524;49.326;2022-07-29T09:51:20;40.00;24.20
67549;DHT22;54382;53.524;49.326;2022-07-29T09:53:47;40.00;24.90
67549;DHT22;54382;53.524;49.326;2022-07-29T09:56:13;40.00;24.70
67549;DHT22;54382;53.524;49.326;2022-07-29T09:58:40;40.00;24.40
67549;DHT22;54382;53.524;49.326;2022-07-29T10:01:07;40.20;24.70
67549;DHT22;54382;53.524;49.326;2022-07-29T10:03:51;40.20;24.50
67549;DHT22;54382;53.524;49.326;2022-07-29T10:06:18;40.20;24.30
67549;DHT22;54382;53.524;49.326;2022-07-29T10:08:44;40.20;24.30
67549;DHT22;54382;53.524;49.326;2022-07-29T10:11:14;40.20;23.90
67549;DHT22;54382;53.524;49.326;2022-07-29T10:13:44;40.10;24.10
67549;DHT22;54382;53.524;49.326;2022-07-29T10:16:12;40.10;23.80
67549;DHT22;54382;53.524;49.326;2022-07-29T10:18:41;40.20;23.70
67549;DHT22;54382;53.524;49.326;2022-07-29T10:21:09;40.30;24.50
67549;DHT22;54382;53.524;49.326;2022-07-29T10:23:36;40.30;24.40
67549;DHT22;54382;53.524;49.326;2022-07-29T10:26:04;40.30;24.50
67549;DHT22;54382;53.524;49.326;2022-07-29T10:28:31;40.30;23.70
67549;DHT22;54382;53.524;49.326;2022-07-29T10:31:01;40.30;23.70
67549;DHT22;54382;53.524;49.326;2022-07-29T10:40:00;40.10;23.80
67549;DHT22;54382;53.524;49.326;2022-07-29T10:43:02;40.10;23.70
67549;DHT22;54382;53.524;49.326;2022-07-29T10:45:41;40.10;23.70
67549;DHT22;54382;53.524;49.326;2022-07-29T10:48:08;40.10;24.00
67549;DHT22;54382;53.524;49.326;2022-07-29T10:53:49;40.00;23.50
67549;DHT22;54382;53.524;49.326;2022-07-29T10:56:30;40.00;23.60
67549;DHT22;54382;53.524;49.326;2022-07-29T10:59:37;40.00;23.90
67549;DHT22;54382;53.524;49.326;2022-07-29T11:05:05;40.00;23.20
67549;DHT22;54382;53.524;49.326;2022-07-29T11:07:35;40.00;23.10
67549;DHT22;54382;53.524;49.326;2022-07-29T11:15:06;39.70;23.40
67549;DHT22;54382;53.524;49.326;2022-07-29T11:20:42;39.60;23.30
67549;DHT22;54382;53.524;49.326;2022-07-29T11:23:33;39.70;23.30
67549;DHT22;54382;53.524;49.326;2022-07-29T11:26:19;39.60;23.40
67549;DHT22;54382;53.524;49.326;2022-07-29T11:29:08;39.50;23.30
67549;DHT22;54382;53.524;49.326;2022-07-29T11:31:51;39.50;23.30
67549;DHT22;54382;53.524;49.326;2022-07-29T11:34:28;39.50;24.30
67549;DHT22;54382;53.524;49.326;2022-07-29T11:45:05;39.80;24.40
67549;DHT22;54382;53.524;49.326;2022-07-29T11:50:13;40.20;24.30
67549;DHT22;54382;53.524;49.326;2022-07-29T11:52:45;40.50;24.10
67549;DHT22;54382;53.524;49.326;2022-07-29T11:55:21;40.90;23.90
67549;DHT22;54382;53.524;49.326;2022-07-29T12:00:24;41.50;23.60
67549;DHT22;54382;53.524;49.326;2022-07-29T12:02:51;41.50;23.70
67549;DHT22;54382;53.524;49.326;2022-07-29T12:05:18;41.60;23.90
67549;DHT22;54382;53.524;49.326;2022-07-29T12:07:47;41.50;23.80
67549;DHT22;54382;53.524;49.326;2022-07-29T12:10:14;41.50;23.30
67549;DHT22;54382;53.524;49.326;2022-07-29T12:12:41;41.50;23.40
67549;DHT22;54382;53.524;49.326;2022-07-29T12:15:16;41.70;23.20
67549;DHT22;54382;53.524;49.326;2022-07-29T12:17:46;41.60;23.40
67549;DHT22;54382;53.524;49.326;2022-07-29T12:20:25;41.50;23.60
67549;DHT22;54382;53.524;49.326;2022-07-29T12:22:54;41.40;23.70
67549;DHT22;54382;53.524;49.326;2022-07-29T12:25:23;41.40;23.70
67549;DHT22;54382;53.524;49.326;2022-07-29T12:28:00;41.30;23.60
67549;DHT22;54382;53.524;49.326;2022-07-29T12:30:44;41.30;23.80
67549;DHT22;54382;53.524;49.326;2022-07-29T12:35:42;41.00;23.70
67549;DHT22;54382;53.524;49.326;2022-07-29T12:38:11;40.80;23.90
67549;DHT22;54382;53.524;49.326;2022-07-29T12:40:38;40.70;24.20
67549;DHT22;54382;53.524;49.326;2022-07-29T12:43:19;40.70;24.60
67549;DHT22;54382;53.524;49.326;2022-07-29T12:45:49;40.70;24.30
67549;DHT22;54382;53.524;49.326;2022-07-29T12:48:17;40.70;23.80
67549;DHT22;54382;53.524;49.326;2022-07-29T12:51:02;40.80;24.40
67549;DHT22;54382;53.524;49.326;2022-07-29T12:53:29;40.80;23.80
67549;DHT22;54382;53.524;49.326;2022-07-29T12:55:57;40.80;23.80
67549;DHT22;54382;53.524;49.326;2022-07-29T12:58:33;40.90;24.20
67549;DHT22;54382;53.524;49.326;2022-07-29T13:03:45;41.00;24.30
67549;DHT22;54382;53.524;49.326;2022-07-29T13:06:43;41.00;24.00
67549;DHT22;54382;53.524;49.326;2022-07-29T13:09:17;41.00;24.20
67549;DHT22;54382;53.524;49.326;2022-07-29T13:11:50;40.90;23.60
67549;DHT22;54382;53.524;49.326;2022-07-29T13:14:35;41.00;23.40
67549;DHT22;54382;53.524;49.326;2022-07-29T13:17:11;41.00;23.30
67549;DHT22;54382;53.524;49.326;2022-07-29T13:19:47;41.00;23.50
67549;DHT22;54382;53.524;49.326;2022-07-29T13:22:17;41.00;22.90
67549;DHT22;54382;53.524;49.326;2022-07-29T13:24:53;41.00;22.90
67549;DHT22;54382;53.524;49.326;2022-07-29T13:27:23;41.10;23.00
67549;DHT22;54382;53.524;49.326;2022-07-29T13:29:56;41.10;22.80
67549;DHT22;54382;53.524;49.326;2022-07-29T13:32:24;41.10;22.80
67549;DHT22;54382;53.524;49.326;2022-07-29T13:34:52;41.10;22.80
67549;DHT22;54382;53.524;49.326;2022-07-29T13:37:19;41.00;22.70
67549;DHT22;54382;53.524;49.326;2022-07-29T13:39:46;40.80;22.80
67549;DHT22;54382;53.524;49.326;2022-07-29T13:42:13;40.60;22.90
67549;DHT22;54382;53.524;49.326;2022-07-29T13:44:40;40.40;23.10
67549;DHT22;54382;53.524;49.326;2022-07-29T13:47:08;40.30;23.00
67549;DHT22;54382;53.524;49.326;2022-07-29T13:49:35;40.10;23.00
67549;DHT22;54382;53.524;49.326;2022-07-29T13:52:02;40.00;23.30
67549;DHT22;54382;53.524;49.326;2022-07-29T13:54:33;39.80;23.60
67549;DHT22;54382;53.524;49.326;2022-07-29T13:57:03;39.60;23.40
67549;DHT22;54382;53.524;49.326;2022-07-29T13:59:30;39.30;23.70
67549;DHT22;54382;53.524;49.326;2022-07-29T14:01:57;39.00;23.80
67549;DHT22;54382;53.524;49.326;2022-07-29T14:04:24;38.70;24.00
67549;DHT22;54382;53.524;49.326;2022-07-29T14:06:51;38.60;24.30
67549;DHT22;54382;53.524;49.326;2022-07-29T14:09:18;38.40;24.20
67549;DHT22;54382;53.524;49.326;2022-07-29T14:11:45;38.30;24.20
67549;DHT22;54382;53.524;49.326;2022-07-29T14:14:13;38.40;24.60
67549;DHT22;54382;53.524;49.326;2022-07-29T14:16:40;38.40;25.10
67549;DHT22;54382;53.524;49.326;2022-07-29T14:19:06;38.40;25.30
67549;DHT22;54382;53.524;49.326;2022-07-29T14:21:33;38.40;25.70
67549;DHT22;54382;53.524;49.326;2022-07-29T14:24:00;38.40;25.60
67549;DHT22;54382;53.524;49.326;2022-07-29T14:26:27;38.40;25.60
67549;DHT22;54382;53.524;49.326;2022-07-29T14:28:53;38.40;25.50
67549;DHT22;54382;53.524;49.326;2022-07-29T14:31:20;38.50;25.60
67549;DHT22;54382;53.524;49.326;2022-07-29T14:33:47;38.50;25.50
67549;DHT22;54382;53.524;49.326;2022-07-29T14:36:13;38.50;25.50
67549;DHT22;54382;53.524;49.326;2022-07-29T14:38:40;38.50;25.40
67549;DHT22;54382;53.524;49.326;2022-07-29T14:41:07;38.50;25.30
67549;DHT22;54382;53.524;49.326;2022-07-29T14:43:34;38.50;25.80
67549;DHT22;54382;53.524;49.326;2022-07-29T14:46:01;38.40;25.80
67549;DHT22;54382;53.524;49.326;2022-07-29T14:48:28;38.30;25.90
67549;DHT22;54382;53.524;49.326;2022-07-29T14:50:55;38.20;26.00
67549;DHT22;54382;53.524;49.326;2022-07-29T14:53:22;38.30;26.40
67549;DHT22;54382;53.524;49.326;2022-07-29T14:55:49;38.30;26.50
67549;DHT22;54382;53.524;49.326;2022-07-29T14:58:16;38.30;26.50
67549;DHT22;54382;53.524;49.326;2022-07-29T15:00:42;38.20;26.60
67549;DHT22;54382;53.524;49.326;2022-07-29T15:03:09;38.10;26.90
67549;DHT22;54382;53.524;49.326;2022-07-29T15:05:36;38.00;27.20
67549;DHT22;54382;53.524;49.326;2022-07-29T15:08:04;38.00;27.30
67549;DHT22;54382;53.524;49.326;2022-07-29T15:10:30;37.90;27.30
67549;DHT22;54382;53.524;49.326;2022-07-29T15:12:57;37.90;27.40
67549;DHT22;54382;53.524;49.326;2022-07-29T15:15:24;37.90;27.50
67549;DHT22;54382;53.524;49.326;2022-07-29T15:17:51;37.90;27.50
67549;DHT22;54382;53.524;49.326;2022-07-29T15:20:18;37.80;27.50
67549;DHT22;54382;53.524;49.326;2022-07-29T15:22:45;37.70;27.60
67549;DHT22;54382;53.524;49.326;2022-07-29T15:25:11;37.60;27.90
67549;DHT22;54382;53.524;49.326;2022-07-29T15:27:38;37.50;28.10
67549;DHT22;54382;53.524;49.326;2022-07-29T15:30:05;37.30;28.00
67549;DHT22;54382;53.524;49.326;2022-07-29T15:32:33;37.10;28.00
67549;DHT22;54382;53.524;49.326;2022-07-29T15:34:59;37.00;28.20
67549;DHT22;54382;53.524;49.326;2022-07-29T15:37:29;36.90;28.50
67549;DHT22;54382;53.524;49.326;2022-07-29T15:39:56;36.60;28.60
67549;DHT22;54382;53.524;49.326;2022-07-29T15:42:22;36.50;28.50
67549;DHT22;54382;53.524;49.326;2022-07-29T15:44:49;36.40;28.40
67549;DHT22;54382;53.524;49.326;2022-07-29T15:47:15;36.30;28.40
67549;DHT22;54382;53.524;49.326;2022-07-29T15:49:42;36.20;28.40
67549;DHT22;54382;53.524;49.326;2022-07-29T15:52:09;36.10;28.50
67549;DHT22;54382;53.524;49.326;2022-07-29T15:54:38;36.00;28.50
67549;DHT22;54382;53.524;49.326;2022-07-29T15:57:06;36.00;28.40
67549;DHT22;54382;53.524;49.326;2022-07-29T15:59:33;36.00;28.30
67549;DHT22;54382;53.524;49.326;2022-07-29T16:02:00;35.90;28.20
67549;DHT22;54382;53.524;49.326;2022-07-29T16:04:27;35.80;28.10
67549;DHT22;54382;53.524;49.326;2022-07-29T16:06:53;35.70;28.10
67549;DHT22;54382;53.524;49.326;2022-07-29T16:09:20;35.60;28.00
67549;DHT22;54382;53.524;49.326;2022-07-29T16:11:47;35.50;28.00
67549;DHT22;54382;53.524;49.326;2022-07-29T16:14:19;35.50;28.10
67549;DHT22;54382;53.524;49.326;2022-07-29T16:16:46;35.40;28.20
67549;DHT22;54382;53.524;49.326;2022-07-29T16:19:13;35.40;28.20
67549;DHT22;54382;53.524;49.326;2022-07-29T16:21:40;35.30;28.30
67549;DHT22;54382;53.524;49.326;2022-07-29T16:24:07;35.20;28.50
67549;DHT22;54382;53.524;49.326;2022-07-29T16:26:34;35.10;29.10
67549;DHT22;54382;53.524;49.326;2022-07-29T16:29:00;35.00;29.00
67549;DHT22;54382;53.524;49.326;2022-07-29T16:31:27;34.90;29.20
67549;DHT22;54382;53.524;49.326;2022-07-29T16:33:55;34.80;30.40
67549;DHT22;54382;53.524;49.326;2022-07-29T16:36:22;34.70;30.70
67549;DHT22;54382;53.524;49.326;2022-07-29T16:38:48;34.60;31.10